KQA2508 HKJK-FKKD
Flight info
| Callsign | KQA2508 |
|---|---|
| Flight time | 3h 51m |
| Altitude | 36000 |
| Route | NAKAT4B NAKAT UL433 NN UL434 NLY |
| Aircraft | B738/M-SDE2E3FGHIRWXY/LB1 |
Departure
| Time | 2026-04-25 12:34 |
|---|---|
| Airport | Jomo Kenyatta International Airport (HKJK) |
Arrival
| Time | 2026-04-25 16:25 |
|---|---|
| Airport | Douala International Airport (FKKD) |
| Time | Latitude | Longitude | Altitude | Speed | Heading |
|---|---|---|---|---|---|
| 2026-04-25 12:18 | -1.33281 | 36.91710 | 5321 ft | 0 kts | 144° |
| 2026-04-25 12:27 | -1.33279 | 36.91708 | 5323 ft | 2 kts | 143° |
| 2026-04-25 12:27 | -1.33264 | 36.91697 | 5318 ft | 3 kts | 142° |
| 2026-04-25 12:27 | -1.33248 | 36.91684 | 5318 ft | 3 kts | 140° |
| 2026-04-25 12:27 | -1.33233 | 36.91671 | 5316 ft | 3 kts | 136° |
| 2026-04-25 12:28 | -1.33219 | 36.91657 | 5316 ft | 3 kts | 128° |
| 2026-04-25 12:28 | -1.33208 | 36.91640 | 5318 ft | 3 kts | 107° |
| 2026-04-25 12:28 | -1.33205 | 36.91626 | 5313 ft | 2 kts | 54° |
| 2026-04-25 12:28 | -1.33208 | 36.91622 | 5313 ft | 0 kts | 38° |
| 2026-04-25 12:31 | -1.33186 | 36.91639 | 5320 ft | 11 kts | 39° |
| 2026-04-25 12:31 | -1.33117 | 36.91706 | 5320 ft | 14 kts | 54° |
| 2026-04-25 12:31 | -1.33063 | 36.91780 | 5325 ft | 13 kts | 54° |
| 2026-04-25 12:31 | -1.32987 | 36.91809 | 5336 ft | 13 kts | 335° |
| 2026-04-25 12:32 | -1.32915 | 36.91760 | 5336 ft | 12 kts | 326° |
| 2026-04-25 12:32 | -1.32844 | 36.91712 | 5339 ft | 12 kts | 324° |
| 2026-04-25 12:32 | -1.32776 | 36.91665 | 5336 ft | 12 kts | 343° |
| 2026-04-25 12:32 | -1.32710 | 36.91705 | 5335 ft | 12 kts | 52° |
| 2026-04-25 12:33 | -1.32557 | 36.91915 | 5322 ft | 70 kts | 54° |
| 2026-04-25 12:33 | -1.32139 | 36.92485 | 5316 ft | 130 kts | 53° |
| 2026-04-25 12:33 | -1.31498 | 36.93361 | 5319 ft | 179 kts | 55° |
| 2026-04-25 12:33 | -1.30736 | 36.94423 | 5831 ft | 191 kts | 54° |
| 2026-04-25 12:34 | -1.29938 | 36.95511 | 6603 ft | 196 kts | 56° |
| 2026-04-25 12:34 | -1.29115 | 36.96607 | 7205 ft | 201 kts | 54° |
| 2026-04-25 12:34 | -1.28220 | 36.97778 | 7385 ft | 222 kts | 54° |
| 2026-04-25 12:34 | -1.27570 | 36.98634 | 7506 ft | 235 kts | 54° |
| 2026-04-25 12:35 | -1.26204 | 37.00443 | 7828 ft | 254 kts | 54° |
| 2026-04-25 12:35 | -1.25127 | 37.01876 | 8249 ft | 261 kts | 54° |
| 2026-04-25 12:35 | -1.24028 | 37.03344 | 8600 ft | 271 kts | 54° |
| 2026-04-25 12:35 | -1.22872 | 37.04892 | 8955 ft | 284 kts | 54° |
| 2026-04-25 12:36 | -1.21672 | 37.06500 | 9559 ft | 290 kts | 54° |
| 2026-04-25 12:36 | -1.20470 | 37.08109 | 10355 ft | 289 kts | 53° |
| 2026-04-25 12:36 | -1.18952 | 37.09472 | 10704 ft | 307 kts | 27° |
| 2026-04-25 12:36 | -1.16809 | 37.09928 | 10867 ft | 329 kts | 357° |
| 2026-04-25 12:37 | -1.14538 | 37.09338 | 11099 ft | 348 kts | 335° |
| 2026-04-25 12:37 | -1.12513 | 37.07961 | 11578 ft | 357 kts | 316° |
| 2026-04-25 12:37 | -1.11022 | 37.05976 | 12258 ft | 359 kts | 297° |
| 2026-04-25 12:37 | -1.10215 | 37.03611 | 12907 ft | 363 kts | 284° |
| 2026-04-25 12:38 | -1.09760 | 37.01104 | 13431 ft | 370 kts | 279° |
| 2026-04-25 12:38 | -1.09425 | 36.98556 | 14074 ft | 371 kts | 278° |
| 2026-04-25 12:38 | -1.09107 | 36.95983 | 14602 ft | 373 kts | 278° |
| 2026-04-25 12:38 | -1.08775 | 36.93413 | 15205 ft | 375 kts | 278° |
| 2026-04-25 12:39 | -1.08413 | 36.90805 | 15577 ft | 382 kts | 280° |
| 2026-04-25 12:39 | -1.08025 | 36.88158 | 16075 ft | 386 kts | 280° |
| 2026-04-25 12:39 | -1.07616 | 36.85493 | 16522 ft | 392 kts | 281° |
| 2026-04-25 12:39 | -1.07191 | 36.82797 | 17066 ft | 393 kts | 281° |
| 2026-04-25 12:40 | -1.06761 | 36.80096 | 17651 ft | 394 kts | 281° |
| 2026-04-25 12:40 | -1.06324 | 36.77371 | 18084 ft | 399 kts | 281° |
| 2026-04-25 12:40 | -1.05881 | 36.74627 | 18580 ft | 401 kts | 280° |
| 2026-04-25 12:40 | -1.05434 | 36.71855 | 18899 ft | 408 kts | 280° |
| 2026-04-25 12:41 | -1.04981 | 36.69049 | 19345 ft | 409 kts | 280° |
| 2026-04-25 12:41 | -1.04526 | 36.66230 | 19696 ft | 414 kts | 281° |
| 2026-04-25 12:41 | -1.04066 | 36.63384 | 20111 ft | 415 kts | 280° |
| 2026-04-25 12:41 | -1.03606 | 36.60536 | 20568 ft | 416 kts | 280° |
| 2026-04-25 12:42 | -1.03145 | 36.57680 | 20995 ft | 417 kts | 280° |
| 2026-04-25 12:42 | -1.02839 | 36.55780 | 21199 ft | 420 kts | 280° |
| 2026-04-25 12:42 | -1.02213 | 36.51906 | 21730 ft | 422 kts | 280° |
| 2026-04-25 12:42 | -1.01744 | 36.48995 | 22086 ft | 426 kts | 280° |
| 2026-04-25 12:43 | -1.01267 | 36.46046 | 22333 ft | 432 kts | 280° |
| 2026-04-25 12:43 | -1.00790 | 36.43087 | 22717 ft | 434 kts | 279° |
| 2026-04-25 12:43 | -1.00042 | 36.37084 | 23479 ft | 436 kts | 275° |
| 2026-04-25 12:44 | -0.99786 | 36.34057 | 23812 ft | 438 kts | 276° |
| 2026-04-25 12:44 | -0.99470 | 36.31012 | 24043 ft | 442 kts | 277° |
| 2026-04-25 12:44 | -0.98630 | 36.24941 | 24620 ft | 445 kts | 279° |
| 2026-04-25 12:45 | -0.98301 | 36.22883 | 24860 ft | 444 kts | 280° |
| 2026-04-25 12:45 | -0.97615 | 36.18795 | 25198 ft | 448 kts | 280° |
| 2026-04-25 12:45 | -0.96561 | 36.12677 | 25654 ft | 454 kts | 281° |
| 2026-04-25 12:46 | -0.96026 | 36.09571 | 25962 ft | 454 kts | 281° |
| 2026-04-25 12:46 | -0.95491 | 36.06454 | 26286 ft | 454 kts | 280° |
| 2026-04-25 12:46 | -0.94960 | 36.03348 | 26573 ft | 455 kts | 281° |
| 2026-04-25 12:46 | -0.94428 | 36.00228 | 26867 ft | 455 kts | 281° |
| 2026-04-25 12:47 | -0.93895 | 35.97102 | 27115 ft | 457 kts | 281° |
| 2026-04-25 12:47 | -0.93359 | 35.93957 | 27298 ft | 460 kts | 280° |
| 2026-04-25 12:47 | -0.92821 | 35.90798 | 27509 ft | 463 kts | 280° |
| 2026-04-25 12:47 | -0.92282 | 35.87637 | 27913 ft | 460 kts | 280° |
| 2026-04-25 12:48 | -0.91745 | 35.84481 | 28136 ft | 462 kts | 280° |
| 2026-04-25 12:48 | -0.91206 | 35.81317 | 28393 ft | 463 kts | 280° |
| 2026-04-25 12:48 | -0.90663 | 35.78132 | 28529 ft | 467 kts | 280° |
| 2026-04-25 12:48 | -0.90116 | 35.74925 | 28725 ft | 469 kts | 281° |
| 2026-04-25 12:49 | -0.89568 | 35.71713 | 28942 ft | 470 kts | 280° |
| 2026-04-25 12:49 | -0.89020 | 35.68493 | 29194 ft | 470 kts | 281° |
| 2026-04-25 12:49 | -0.88469 | 35.65263 | 29329 ft | 473 kts | 280° |
| 2026-04-25 12:49 | -0.87915 | 35.62012 | 29482 ft | 476 kts | 281° |
| 2026-04-25 12:50 | -0.87359 | 35.58754 | 29777 ft | 475 kts | 281° |
| 2026-04-25 12:50 | -0.86805 | 35.55501 | 30008 ft | 476 kts | 280° |
| 2026-04-25 12:50 | -0.86250 | 35.52244 | 30183 ft | 476 kts | 280° |
| 2026-04-25 12:50 | -0.85693 | 35.48976 | 30357 ft | 477 kts | 280° |
| 2026-04-25 12:51 | -0.85136 | 35.45709 | 30618 ft | 476 kts | 281° |
| 2026-04-25 12:51 | -0.84580 | 35.42450 | 30842 ft | 475 kts | 280° |
| 2026-04-25 12:51 | -0.84026 | 35.39201 | 31123 ft | 473 kts | 280° |
| 2026-04-25 12:51 | -0.83457 | 35.35972 | 31422 ft | 471 kts | 283° |
| 2026-04-25 12:52 | -0.82676 | 35.32797 | 31635 ft | 471 kts | 287° |
| 2026-04-25 12:52 | -0.81737 | 35.29665 | 31840 ft | 470 kts | 288° |
| 2026-04-25 12:52 | -0.80756 | 35.26596 | 32055 ft | 470 kts | 289° |
| 2026-04-25 12:52 | -0.79758 | 35.23486 | 32320 ft | 469 kts | 288° |
| 2026-04-25 12:53 | -0.78785 | 35.20395 | 32665 ft | 465 kts | 288° |
| 2026-04-25 12:53 | -0.77836 | 35.17309 | 32954 ft | 464 kts | 287° |
| 2026-04-25 12:53 | -0.76906 | 35.14227 | 33168 ft | 464 kts | 287° |
| 2026-04-25 12:53 | -0.75983 | 35.11137 | 33379 ft | 464 kts | 287° |
| 2026-04-25 12:54 | -0.75065 | 35.08048 | 33638 ft | 463 kts | 287° |
| 2026-04-25 12:54 | -0.74153 | 35.04971 | 33931 ft | 461 kts | 287° |
| 2026-04-25 12:54 | -0.73244 | 35.01908 | 34162 ft | 460 kts | 287° |
| 2026-04-25 12:54 | -0.72335 | 34.98848 | 34347 ft | 460 kts | 287° |
| 2026-04-25 12:55 | -0.71423 | 34.95782 | 34483 ft | 461 kts | 287° |
| 2026-04-25 12:55 | -0.71114 | 34.94745 | 34533 ft | 461 kts | 287° |
| 2026-04-25 12:55 | -0.69596 | 34.89640 | 34865 ft | 460 kts | 287° |
| 2026-04-25 12:55 | -0.68685 | 34.86581 | 35090 ft | 459 kts | 287° |
| 2026-04-25 12:56 | -0.67776 | 34.83526 | 35263 ft | 458 kts | 287° |
| 2026-04-25 12:56 | -0.66868 | 34.80472 | 35426 ft | 459 kts | 287° |
| 2026-04-25 12:56 | -0.65959 | 34.77418 | 35603 ft | 459 kts | 287° |
| 2026-04-25 12:56 | -0.65051 | 34.74367 | 35821 ft | 458 kts | 287° |
| 2026-04-25 12:57 | -0.64146 | 34.71328 | 35944 ft | 456 kts | 287° |
| 2026-04-25 12:57 | -0.63240 | 34.68284 | 35934 ft | 457 kts | 287° |
| 2026-04-25 12:57 | -0.61431 | 34.62202 | 35918 ft | 456 kts | 287° |
| 2026-04-25 12:58 | -0.59646 | 34.56145 | 35921 ft | 454 kts | 286° |
| 2026-04-25 12:58 | -0.57972 | 34.50073 | 35912 ft | 452 kts | 285° |
| 2026-04-25 12:59 | -0.56325 | 34.44013 | 35914 ft | 451 kts | 285° |
| 2026-04-25 12:59 | -0.54669 | 34.37967 | 35911 ft | 451 kts | 285° |
| 2026-04-25 13:00 | -0.53569 | 34.33969 | 35915 ft | 451 kts | 285° |
| 2026-04-25 13:00 | -0.51622 | 34.26907 | 35917 ft | 451 kts | 285° |
| 2026-04-25 13:01 | -0.49954 | 34.20853 | 35919 ft | 452 kts | 285° |
| 2026-04-25 13:01 | -0.48284 | 34.14794 | 35915 ft | 453 kts | 285° |
| 2026-04-25 13:02 | -0.46610 | 34.08716 | 35912 ft | 454 kts | 285° |
| 2026-04-25 13:02 | -0.44934 | 34.02632 | 35914 ft | 455 kts | 285° |
| 2026-04-25 13:03 | -0.43255 | 33.96539 | 35916 ft | 455 kts | 285° |
| 2026-04-25 13:03 | -0.41350 | 33.90501 | 35916 ft | 456 kts | 289° |
| 2026-04-25 13:04 | -0.39293 | 33.84513 | 35920 ft | 456 kts | 289° |
| 2026-04-25 13:04 | -0.37263 | 33.78516 | 35917 ft | 456 kts | 288° |
| 2026-04-25 13:05 | -0.35263 | 33.72510 | 35922 ft | 455 kts | 288° |
| 2026-04-25 13:05 | -0.33272 | 33.66504 | 35911 ft | 456 kts | 289° |
| 2026-04-25 13:06 | -0.31280 | 33.60499 | 35924 ft | 455 kts | 289° |
| 2026-04-25 13:06 | -0.29286 | 33.54492 | 35919 ft | 456 kts | 289° |
| 2026-04-25 13:07 | -0.27290 | 33.48481 | 35920 ft | 456 kts | 289° |
| 2026-04-25 13:07 | -0.25350 | 33.42493 | 35923 ft | 456 kts | 288° |
| 2026-04-25 13:08 | -0.23480 | 33.36435 | 35924 ft | 457 kts | 288° |
| 2026-04-25 13:08 | -0.21611 | 33.30365 | 35922 ft | 457 kts | 287° |
| 2026-04-25 13:09 | -0.19732 | 33.24301 | 35925 ft | 457 kts | 288° |
| 2026-04-25 13:09 | -0.17844 | 33.18226 | 35925 ft | 458 kts | 288° |
| 2026-04-25 13:10 | -0.15956 | 33.12157 | 35927 ft | 458 kts | 288° |
| 2026-04-25 13:10 | -0.14065 | 33.06079 | 35922 ft | 458 kts | 288° |
| 2026-04-25 13:11 | -0.12177 | 33.00006 | 35923 ft | 458 kts | 288° |
| 2026-04-25 13:11 | -0.10290 | 32.93939 | 35944 ft | 457 kts | 288° |
| 2026-04-25 13:12 | -0.08404 | 32.87875 | 35948 ft | 457 kts | 288° |
| 2026-04-25 13:12 | -0.06826 | 32.82800 | 35974 ft | 456 kts | 288° |
| 2026-04-25 13:13 | -0.04639 | 32.75767 | 35970 ft | 455 kts | 288° |
| 2026-04-25 13:13 | -0.02763 | 32.69735 | 35997 ft | 454 kts | 288° |
| 2026-04-25 13:14 | -0.00889 | 32.63707 | 35997 ft | 454 kts | 288° |
| 2026-04-25 13:14 | 0.00982 | 32.57692 | 36037 ft | 453 kts | 288° |
| 2026-04-25 13:15 | 0.02851 | 32.51677 | 36049 ft | 453 kts | 288° |
| 2026-04-25 13:15 | 0.04720 | 32.45662 | 36050 ft | 454 kts | 288° |
| 2026-04-25 13:16 | 0.05726 | 32.39443 | 36063 ft | 455 kts | 274° |
| 2026-04-25 13:16 | 0.06073 | 32.33121 | 36046 ft | 457 kts | 274° |
| 2026-04-25 13:17 | 0.06425 | 32.26773 | 36047 ft | 458 kts | 274° |
| 2026-04-25 13:17 | 0.06821 | 32.20410 | 36036 ft | 459 kts | 275° |
| 2026-04-25 13:18 | 0.07236 | 32.14035 | 36021 ft | 460 kts | 274° |
| 2026-04-25 13:18 | 0.07655 | 32.07643 | 36016 ft | 461 kts | 274° |
| 2026-04-25 13:19 | 0.08071 | 32.01285 | 35997 ft | 462 kts | 274° |
| 2026-04-25 13:19 | 0.08420 | 31.95915 | 35991 ft | 462 kts | 274° |
| 2026-04-25 13:20 | 0.08905 | 31.88462 | 35982 ft | 463 kts | 274° |
| 2026-04-25 13:20 | 0.09323 | 31.82042 | 35982 ft | 463 kts | 274° |
| 2026-04-25 13:21 | 0.09740 | 31.75629 | 35974 ft | 462 kts | 273° |
| 2026-04-25 13:21 | 0.10157 | 31.69225 | 35962 ft | 462 kts | 273° |
| 2026-04-25 13:22 | 0.10568 | 31.62827 | 35945 ft | 461 kts | 273° |
| 2026-04-25 13:23 | 0.11181 | 31.53257 | 35950 ft | 459 kts | 273° |
| 2026-04-25 13:23 | 0.11589 | 31.46896 | 35930 ft | 459 kts | 273° |
| 2026-04-25 13:24 | 0.11996 | 31.40539 | 35925 ft | 458 kts | 273° |
| 2026-04-25 13:24 | 0.12404 | 31.34189 | 35926 ft | 458 kts | 273° |
| 2026-04-25 13:25 | 0.12820 | 31.27842 | 35903 ft | 458 kts | 274° |
| 2026-04-25 13:25 | 0.13238 | 31.21487 | 35919 ft | 458 kts | 273° |
| 2026-04-25 13:26 | 0.13655 | 31.15134 | 35906 ft | 459 kts | 273° |
| 2026-04-25 13:26 | 0.14072 | 31.08770 | 35909 ft | 459 kts | 273° |
| 2026-04-25 13:27 | 0.14490 | 31.02399 | 35888 ft | 460 kts | 273° |
| 2026-04-25 13:27 | 0.14908 | 30.96016 | 35892 ft | 461 kts | 273° |
| 2026-04-25 13:28 | 0.15324 | 30.89668 | 35888 ft | 462 kts | 273° |
| 2026-04-25 13:28 | 0.15744 | 30.83258 | 35881 ft | 462 kts | 273° |
| 2026-04-25 13:29 | 0.16163 | 30.76852 | 35889 ft | 462 kts | 273° |
| 2026-04-25 13:29 | 0.16584 | 30.70438 | 35902 ft | 463 kts | 273° |
| 2026-04-25 13:30 | 0.17214 | 30.60819 | 35917 ft | 462 kts | 273° |
| 2026-04-25 13:31 | 0.17791 | 30.51215 | 35913 ft | 461 kts | 272° |
| 2026-04-25 13:31 | 0.18152 | 30.44821 | 35912 ft | 461 kts | 272° |
| 2026-04-25 13:32 | 0.18516 | 30.38433 | 35940 ft | 460 kts | 272° |
| 2026-04-25 13:32 | 0.18885 | 30.32052 | 35962 ft | 461 kts | 272° |
| 2026-04-25 13:33 | 0.19253 | 30.25667 | 36012 ft | 460 kts | 272° |
| 2026-04-25 13:33 | 0.19623 | 30.19267 | 36033 ft | 463 kts | 272° |
| 2026-04-25 13:34 | 0.19995 | 30.12827 | 36010 ft | 465 kts | 272° |
| 2026-04-25 13:34 | 0.20366 | 30.06396 | 36019 ft | 462 kts | 273° |
| 2026-04-25 13:35 | 0.20735 | 30.00002 | 36007 ft | 460 kts | 272° |
| 2026-04-25 13:35 | 0.21102 | 29.93636 | 35937 ft | 458 kts | 273° |
| 2026-04-25 13:36 | 0.21472 | 29.87299 | 35926 ft | 456 kts | 273° |
| 2026-04-25 13:36 | 0.21855 | 29.81023 | 35927 ft | 455 kts | 273° |
| 2026-04-25 13:37 | 0.22241 | 29.74723 | 35929 ft | 454 kts | 273° |
| 2026-04-25 13:37 | 0.22625 | 29.68421 | 35925 ft | 455 kts | 273° |
| 2026-04-25 13:38 | 0.23009 | 29.62106 | 35923 ft | 456 kts | 273° |
| 2026-04-25 13:38 | 0.23394 | 29.55762 | 35908 ft | 458 kts | 273° |
| 2026-04-25 13:39 | 0.23781 | 29.49398 | 35915 ft | 460 kts | 273° |
| 2026-04-25 13:39 | 0.24169 | 29.43007 | 35913 ft | 462 kts | 273° |
| 2026-04-25 13:40 | 0.24650 | 29.36590 | 35914 ft | 464 kts | 275° |
| 2026-04-25 13:40 | 0.25122 | 29.30156 | 35914 ft | 465 kts | 273° |
| 2026-04-25 13:41 | 0.25495 | 29.23698 | 35914 ft | 465 kts | 273° |
| 2026-04-25 13:41 | 0.25868 | 29.17243 | 35918 ft | 466 kts | 273° |
| 2026-04-25 13:42 | 0.26256 | 29.10779 | 35915 ft | 466 kts | 274° |
| 2026-04-25 13:42 | 0.26651 | 29.04322 | 35915 ft | 466 kts | 274° |
| 2026-04-25 13:43 | 0.27043 | 28.97860 | 35898 ft | 466 kts | 274° |
| 2026-04-25 13:43 | 0.27442 | 28.91398 | 35908 ft | 466 kts | 274° |
| 2026-04-25 13:44 | 0.27838 | 28.84944 | 35915 ft | 465 kts | 274° |
| 2026-04-25 13:44 | 0.28233 | 28.78499 | 35909 ft | 465 kts | 274° |
| 2026-04-25 13:45 | 0.28627 | 28.72064 | 35904 ft | 464 kts | 274° |
| 2026-04-25 13:45 | 0.29021 | 28.65626 | 35914 ft | 464 kts | 274° |
| 2026-04-25 13:46 | 0.29414 | 28.59200 | 35899 ft | 463 kts | 274° |
| 2026-04-25 13:46 | 0.29806 | 28.52782 | 35894 ft | 462 kts | 274° |
| 2026-04-25 13:47 | 0.30198 | 28.46381 | 35909 ft | 461 kts | 274° |
| 2026-04-25 13:47 | 0.30588 | 28.40004 | 35899 ft | 460 kts | 274° |
| 2026-04-25 13:48 | 0.30978 | 28.33631 | 35914 ft | 459 kts | 274° |
| 2026-04-25 13:48 | 0.31301 | 28.28349 | 35895 ft | 458 kts | 274° |
| 2026-04-25 13:49 | 0.31689 | 28.21998 | 35905 ft | 458 kts | 274° |
| 2026-04-25 13:49 | 0.32077 | 28.15654 | 35898 ft | 457 kts | 274° |
| 2026-04-25 13:50 | 0.32464 | 28.09314 | 35896 ft | 457 kts | 274° |
| 2026-04-25 13:50 | 0.32852 | 28.02975 | 35900 ft | 457 kts | 274° |
| 2026-04-25 13:51 | 0.33240 | 27.96626 | 35894 ft | 458 kts | 274° |
| 2026-04-25 13:51 | 0.33630 | 27.90266 | 35901 ft | 459 kts | 274° |
| 2026-04-25 13:52 | 0.34023 | 27.83896 | 35900 ft | 460 kts | 274° |
| 2026-04-25 13:52 | 0.34417 | 27.77513 | 35904 ft | 461 kts | 274° |
| 2026-04-25 13:53 | 0.34812 | 27.71118 | 35896 ft | 462 kts | 274° |
| 2026-04-25 13:53 | 0.35207 | 27.64713 | 35899 ft | 462 kts | 274° |
| 2026-04-25 13:54 | 0.35602 | 27.58306 | 35900 ft | 462 kts | 274° |
| 2026-04-25 13:54 | 0.35997 | 27.51898 | 35892 ft | 462 kts | 274° |
| 2026-04-25 13:55 | 0.36391 | 27.45492 | 35902 ft | 462 kts | 274° |
| 2026-04-25 13:55 | 0.36786 | 27.39085 | 35893 ft | 462 kts | 274° |
| 2026-04-25 13:56 | 0.37178 | 27.32720 | 35905 ft | 462 kts | 274° |
| 2026-04-25 13:56 | 0.37576 | 27.26273 | 35899 ft | 462 kts | 274° |
| 2026-04-25 13:57 | 0.37968 | 27.19910 | 35914 ft | 462 kts | 274° |
| 2026-04-25 13:57 | 0.38363 | 27.13497 | 35908 ft | 462 kts | 274° |
| 2026-04-25 13:58 | 0.38758 | 27.07085 | 35910 ft | 463 kts | 274° |
| 2026-04-25 13:58 | 0.39153 | 27.00672 | 35912 ft | 463 kts | 274° |
| 2026-04-25 13:59 | 0.39548 | 26.94254 | 35908 ft | 463 kts | 274° |
| 2026-04-25 13:59 | 0.39943 | 26.87827 | 35911 ft | 463 kts | 274° |
| 2026-04-25 14:00 | 0.40272 | 26.82491 | 35917 ft | 463 kts | 274° |
| 2026-04-25 14:00 | 0.40734 | 26.74984 | 35917 ft | 463 kts | 274° |
| 2026-04-25 14:01 | 0.41129 | 26.68558 | 35914 ft | 463 kts | 274° |
| 2026-04-25 14:01 | 0.41525 | 26.62133 | 35912 ft | 463 kts | 274° |
| 2026-04-25 14:02 | 0.41920 | 26.55709 | 35912 ft | 463 kts | 274° |
| 2026-04-25 14:02 | 0.42315 | 26.49293 | 35909 ft | 463 kts | 274° |
| 2026-04-25 14:03 | 0.42709 | 26.42878 | 35913 ft | 462 kts | 274° |
| 2026-04-25 14:03 | 0.43103 | 26.36468 | 35912 ft | 462 kts | 274° |
| 2026-04-25 14:04 | 0.43497 | 26.30064 | 35907 ft | 462 kts | 274° |
| 2026-04-25 14:04 | 0.43891 | 26.23658 | 35907 ft | 462 kts | 274° |
| 2026-04-25 14:05 | 0.44284 | 26.17260 | 35916 ft | 462 kts | 274° |
| 2026-04-25 14:05 | 0.44682 | 26.10846 | 35914 ft | 462 kts | 274° |
| 2026-04-25 14:06 | 0.45082 | 26.04436 | 35915 ft | 463 kts | 274° |
| 2026-04-25 14:06 | 0.45482 | 25.98015 | 35912 ft | 463 kts | 274° |
| 2026-04-25 14:07 | 0.45883 | 25.91588 | 35903 ft | 464 kts | 273° |
| 2026-04-25 14:07 | 0.46284 | 25.85143 | 35916 ft | 465 kts | 274° |
| 2026-04-25 14:08 | 0.46686 | 25.78681 | 35912 ft | 467 kts | 273° |
| 2026-04-25 14:08 | 0.47088 | 25.72205 | 35911 ft | 468 kts | 273° |
| 2026-04-25 14:09 | 0.47493 | 25.65700 | 35912 ft | 469 kts | 273° |
| 2026-04-25 14:09 | 0.47898 | 25.59189 | 35907 ft | 470 kts | 274° |
| 2026-04-25 14:10 | 0.48303 | 25.52665 | 35913 ft | 471 kts | 274° |
| 2026-04-25 14:10 | 0.48709 | 25.46139 | 35913 ft | 471 kts | 274° |
| 2026-04-25 14:11 | 0.49115 | 25.39600 | 35912 ft | 471 kts | 274° |
| 2026-04-25 14:11 | 0.49524 | 25.33067 | 35912 ft | 471 kts | 274° |
| 2026-04-25 14:12 | 0.50690 | 25.26656 | 35909 ft | 469 kts | 284° |
| 2026-04-25 14:12 | 0.52319 | 25.20357 | 35899 ft | 468 kts | 285° |
| 2026-04-25 14:13 | 0.53928 | 25.14067 | 35900 ft | 467 kts | 284° |
| 2026-04-25 14:13 | 0.55485 | 25.07779 | 35900 ft | 466 kts | 284° |
| 2026-04-25 14:14 | 0.57018 | 25.01503 | 35904 ft | 465 kts | 284° |
| 2026-04-25 14:14 | 0.58549 | 24.95229 | 35901 ft | 464 kts | 284° |
| 2026-04-25 14:15 | 0.60078 | 24.88975 | 35904 ft | 464 kts | 284° |
| 2026-04-25 14:15 | 0.61599 | 24.82756 | 35905 ft | 463 kts | 284° |
| 2026-04-25 14:16 | 0.63138 | 24.76463 | 35900 ft | 464 kts | 284° |
| 2026-04-25 14:16 | 0.64658 | 24.70245 | 35902 ft | 464 kts | 284° |
| 2026-04-25 14:17 | 0.66199 | 24.63943 | 35903 ft | 464 kts | 284° |
| 2026-04-25 14:17 | 0.67722 | 24.57714 | 35900 ft | 465 kts | 284° |
| 2026-04-25 14:18 | 0.69259 | 24.51437 | 35897 ft | 465 kts | 284° |
| 2026-04-25 14:18 | 0.70815 | 24.45167 | 35899 ft | 466 kts | 284° |
| 2026-04-25 14:19 | 0.72380 | 24.38881 | 35903 ft | 466 kts | 284° |
| 2026-04-25 14:19 | 0.73945 | 24.32587 | 35896 ft | 467 kts | 284° |
| 2026-04-25 14:20 | 0.75510 | 24.26287 | 35899 ft | 467 kts | 284° |
| 2026-04-25 14:20 | 0.77075 | 24.19986 | 35893 ft | 468 kts | 284° |
| 2026-04-25 14:21 | 0.78641 | 24.13676 | 35894 ft | 468 kts | 284° |
| 2026-04-25 14:21 | 0.80207 | 24.07365 | 35891 ft | 468 kts | 284° |
| 2026-04-25 14:22 | 0.81774 | 24.01054 | 35886 ft | 468 kts | 284° |
| 2026-04-25 14:22 | 0.83339 | 23.94745 | 35889 ft | 468 kts | 284° |
| 2026-04-25 14:23 | 0.84906 | 23.88434 | 35886 ft | 468 kts | 284° |
| 2026-04-25 14:23 | 0.86470 | 23.82128 | 35889 ft | 468 kts | 284° |
| 2026-04-25 14:24 | 0.88037 | 23.75815 | 35887 ft | 468 kts | 284° |
| 2026-04-25 14:24 | 0.89603 | 23.69503 | 35878 ft | 468 kts | 284° |
| 2026-04-25 14:25 | 0.91170 | 23.63187 | 35887 ft | 468 kts | 284° |
| 2026-04-25 14:25 | 0.92738 | 23.56865 | 35885 ft | 469 kts | 284° |
| 2026-04-25 14:26 | 0.94307 | 23.50543 | 35885 ft | 469 kts | 284° |
| 2026-04-25 14:26 | 0.95878 | 23.44208 | 35887 ft | 470 kts | 284° |
| 2026-04-25 14:27 | 0.97451 | 23.37865 | 35880 ft | 470 kts | 284° |
| 2026-04-25 14:27 | 0.99025 | 23.31518 | 35889 ft | 471 kts | 284° |
| 2026-04-25 14:28 | 1.00600 | 23.25164 | 35884 ft | 472 kts | 284° |
| 2026-04-25 14:28 | 1.02178 | 23.18800 | 35884 ft | 472 kts | 284° |
| 2026-04-25 14:29 | 1.03759 | 23.12424 | 35887 ft | 472 kts | 284° |
| 2026-04-25 14:29 | 1.05337 | 23.06057 | 35885 ft | 472 kts | 284° |
| 2026-04-25 14:30 | 1.06917 | 22.99683 | 35882 ft | 473 kts | 284° |
| 2026-04-25 14:30 | 1.09288 | 22.90120 | 35887 ft | 473 kts | 284° |
| 2026-04-25 14:31 | 1.10868 | 22.83742 | 35883 ft | 473 kts | 284° |
| 2026-04-25 14:31 | 1.12448 | 22.77365 | 35882 ft | 473 kts | 284° |
| 2026-04-25 14:32 | 1.13761 | 22.72066 | 35884 ft | 473 kts | 284° |
| 2026-04-25 14:32 | 1.15340 | 22.65695 | 35875 ft | 473 kts | 284° |
| 2026-04-25 14:33 | 1.16918 | 22.59321 | 35875 ft | 473 kts | 284° |
| 2026-04-25 14:33 | 1.18497 | 22.52949 | 35879 ft | 472 kts | 284° |
| 2026-04-25 14:34 | 1.20076 | 22.46574 | 35876 ft | 472 kts | 284° |
| 2026-04-25 14:34 | 1.21653 | 22.40204 | 35881 ft | 472 kts | 283° |
| 2026-04-25 14:35 | 1.23228 | 22.33841 | 35873 ft | 471 kts | 283° |
| 2026-04-25 14:35 | 1.24800 | 22.27490 | 35873 ft | 471 kts | 283° |
| 2026-04-25 14:36 | 1.26369 | 22.21152 | 35871 ft | 470 kts | 284° |
| 2026-04-25 14:36 | 1.27936 | 22.14817 | 35871 ft | 469 kts | 283° |
| 2026-04-25 14:37 | 1.29496 | 22.08495 | 35880 ft | 468 kts | 283° |
| 2026-04-25 14:37 | 1.31056 | 22.02172 | 35866 ft | 468 kts | 283° |
| 2026-04-25 14:38 | 1.32602 | 21.95906 | 35869 ft | 467 kts | 283° |
| 2026-04-25 14:38 | 1.34157 | 21.89599 | 35870 ft | 467 kts | 283° |
| 2026-04-25 14:39 | 1.35709 | 21.83308 | 35868 ft | 466 kts | 283° |
| 2026-04-25 14:39 | 1.37260 | 21.77016 | 35875 ft | 466 kts | 284° |
| 2026-04-25 14:40 | 1.38810 | 21.70730 | 35865 ft | 466 kts | 284° |
| 2026-04-25 14:40 | 1.40359 | 21.64449 | 35868 ft | 465 kts | 284° |
| 2026-04-25 14:41 | 1.41906 | 21.58171 | 35868 ft | 465 kts | 283° |
| 2026-04-25 14:41 | 1.43454 | 21.51891 | 35859 ft | 466 kts | 283° |
| 2026-04-25 14:42 | 1.44746 | 21.46623 | 35866 ft | 466 kts | 283° |
| 2026-04-25 14:42 | 1.46535 | 21.39306 | 35867 ft | 467 kts | 283° |
| 2026-04-25 14:43 | 1.48077 | 21.32994 | 35863 ft | 468 kts | 283° |
| 2026-04-25 14:43 | 1.49623 | 21.26669 | 35865 ft | 469 kts | 283° |
| 2026-04-25 14:44 | 1.51171 | 21.20335 | 35862 ft | 469 kts | 283° |
| 2026-04-25 14:44 | 1.52721 | 21.13995 | 35865 ft | 470 kts | 283° |
| 2026-04-25 14:45 | 1.54272 | 21.07649 | 35857 ft | 470 kts | 283° |
| 2026-04-25 14:45 | 1.55821 | 21.01309 | 35856 ft | 470 kts | 283° |
| 2026-04-25 14:46 | 1.57370 | 20.94966 | 35855 ft | 469 kts | 283° |
| 2026-04-25 14:46 | 1.58917 | 20.88636 | 35853 ft | 468 kts | 283° |
| 2026-04-25 14:47 | 1.60199 | 20.83385 | 35853 ft | 468 kts | 283° |
| 2026-04-25 14:47 | 1.62000 | 20.76007 | 35851 ft | 467 kts | 283° |
| 2026-04-25 14:48 | 1.63531 | 20.69737 | 35854 ft | 467 kts | 283° |
| 2026-04-25 14:48 | 1.65070 | 20.63431 | 35856 ft | 467 kts | 283° |
| 2026-04-25 14:49 | 1.66613 | 20.57123 | 35854 ft | 467 kts | 283° |
| 2026-04-25 14:49 | 1.68188 | 20.50818 | 35851 ft | 468 kts | 284° |
| 2026-04-25 14:50 | 1.69773 | 20.44510 | 35857 ft | 468 kts | 284° |
| 2026-04-25 14:50 | 1.71356 | 20.38194 | 35854 ft | 469 kts | 284° |
| 2026-04-25 14:51 | 1.72939 | 20.31866 | 35848 ft | 469 kts | 284° |
| 2026-04-25 14:51 | 1.74520 | 20.25540 | 35848 ft | 470 kts | 284° |
| 2026-04-25 14:52 | 1.76104 | 20.19202 | 35847 ft | 470 kts | 284° |
| 2026-04-25 14:52 | 1.77421 | 20.13934 | 35846 ft | 470 kts | 284° |
| 2026-04-25 14:53 | 1.79274 | 20.06518 | 35846 ft | 470 kts | 284° |
| 2026-04-25 14:53 | 1.80858 | 20.00176 | 35841 ft | 471 kts | 284° |
| 2026-04-25 14:54 | 1.82443 | 19.93826 | 35848 ft | 471 kts | 284° |
| 2026-04-25 14:54 | 1.84000 | 19.87470 | 35844 ft | 471 kts | 283° |
| 2026-04-25 14:55 | 1.85537 | 19.81152 | 35846 ft | 471 kts | 283° |
| 2026-04-25 14:55 | 1.87088 | 19.74787 | 35848 ft | 471 kts | 283° |
| 2026-04-25 14:56 | 1.88640 | 19.68425 | 35842 ft | 471 kts | 283° |
| 2026-04-25 14:56 | 1.90191 | 19.62068 | 35841 ft | 470 kts | 283° |
| 2026-04-25 14:57 | 1.91740 | 19.55719 | 35840 ft | 470 kts | 283° |
| 2026-04-25 14:57 | 1.93286 | 19.49380 | 35842 ft | 469 kts | 283° |
| 2026-04-25 14:58 | 1.94846 | 19.43053 | 35851 ft | 468 kts | 284° |
| 2026-04-25 14:58 | 1.96419 | 19.36743 | 35838 ft | 468 kts | 284° |
| 2026-04-25 14:59 | 1.97988 | 19.30432 | 35839 ft | 467 kts | 284° |
| 2026-04-25 14:59 | 1.99549 | 19.24141 | 35841 ft | 466 kts | 284° |
| 2026-04-25 15:00 | 2.01107 | 19.17853 | 35841 ft | 465 kts | 284° |
| 2026-04-25 15:00 | 2.02640 | 19.11571 | 35845 ft | 465 kts | 284° |
| 2026-04-25 15:01 | 2.04163 | 19.05295 | 35847 ft | 465 kts | 284° |
| 2026-04-25 15:01 | 2.05687 | 18.99023 | 35844 ft | 464 kts | 284° |
| 2026-04-25 15:02 | 2.07213 | 18.92749 | 35844 ft | 464 kts | 284° |
| 2026-04-25 15:02 | 2.08739 | 18.86476 | 35844 ft | 464 kts | 284° |
| 2026-04-25 15:03 | 2.10264 | 18.80205 | 35846 ft | 465 kts | 284° |
| 2026-04-25 15:03 | 2.11792 | 18.73924 | 35840 ft | 465 kts | 284° |
| 2026-04-25 15:04 | 2.13320 | 18.67639 | 35845 ft | 466 kts | 284° |
| 2026-04-25 15:04 | 2.14850 | 18.61342 | 35845 ft | 466 kts | 284° |
| 2026-04-25 15:05 | 2.16383 | 18.55036 | 35844 ft | 467 kts | 284° |
| 2026-04-25 15:06 | 2.18699 | 18.45564 | 35843 ft | 468 kts | 284° |
| 2026-04-25 15:06 | 2.20288 | 18.39251 | 35843 ft | 469 kts | 284° |
| 2026-04-25 15:07 | 2.21882 | 18.32923 | 35850 ft | 469 kts | 284° |
| 2026-04-25 15:07 | 2.23472 | 18.26588 | 35846 ft | 470 kts | 284° |
| 2026-04-25 15:08 | 2.25061 | 18.20244 | 35848 ft | 471 kts | 284° |
| 2026-04-25 15:08 | 2.26641 | 18.13933 | 35846 ft | 471 kts | 284° |
| 2026-04-25 15:09 | 2.28160 | 18.07563 | 35845 ft | 471 kts | 282° |
| 2026-04-25 15:09 | 2.30159 | 17.97950 | 35847 ft | 471 kts | 282° |
| 2026-04-25 15:10 | 2.31510 | 17.91550 | 35846 ft | 470 kts | 282° |
| 2026-04-25 15:11 | 2.33562 | 17.81962 | 35849 ft | 470 kts | 282° |
| 2026-04-25 15:11 | 2.34927 | 17.75578 | 35849 ft | 469 kts | 282° |
| 2026-04-25 15:12 | 2.37141 | 17.66053 | 35851 ft | 469 kts | 283° |
| 2026-04-25 15:12 | 2.38113 | 17.61804 | 35851 ft | 468 kts | 282° |
| 2026-04-25 15:13 | 2.40712 | 17.50165 | 35852 ft | 468 kts | 282° |
| 2026-04-25 15:14 | 2.42133 | 17.43817 | 35850 ft | 468 kts | 282° |
| 2026-04-25 15:14 | 2.43558 | 17.37466 | 35859 ft | 468 kts | 282° |
| 2026-04-25 15:15 | 2.44984 | 17.31117 | 35851 ft | 468 kts | 282° |
| 2026-04-25 15:15 | 2.46409 | 17.24766 | 35852 ft | 468 kts | 282° |
| 2026-04-25 15:16 | 2.47835 | 17.18412 | 35852 ft | 468 kts | 282° |
| 2026-04-25 15:16 | 2.49973 | 17.08882 | 35854 ft | 468 kts | 282° |
| 2026-04-25 15:17 | 2.52110 | 16.99352 | 35852 ft | 468 kts | 282° |
| 2026-04-25 15:18 | 2.53523 | 16.93046 | 35852 ft | 468 kts | 282° |
| 2026-04-25 15:18 | 2.55658 | 16.83522 | 35852 ft | 468 kts | 282° |
| 2026-04-25 15:19 | 2.56609 | 16.79277 | 35848 ft | 467 kts | 283° |
| 2026-04-25 15:19 | 2.58498 | 16.70844 | 35850 ft | 467 kts | 283° |
| 2026-04-25 15:20 | 2.59917 | 16.64506 | 35852 ft | 467 kts | 283° |
| 2026-04-25 15:20 | 2.61336 | 16.58168 | 35848 ft | 467 kts | 283° |
| 2026-04-25 15:21 | 2.62524 | 16.52860 | 35852 ft | 467 kts | 283° |
| 2026-04-25 15:21 | 2.63942 | 16.46521 | 35843 ft | 467 kts | 283° |
| 2026-04-25 15:22 | 2.65361 | 16.40178 | 35847 ft | 467 kts | 283° |
| 2026-04-25 15:22 | 2.66780 | 16.33832 | 35852 ft | 468 kts | 283° |
| 2026-04-25 15:23 | 2.68192 | 16.27519 | 35842 ft | 468 kts | 283° |
| 2026-04-25 15:23 | 2.69613 | 16.21163 | 35845 ft | 468 kts | 283° |
| 2026-04-25 15:24 | 2.71034 | 16.14802 | 35843 ft | 469 kts | 283° |
| 2026-04-25 15:24 | 2.72226 | 16.09467 | 35839 ft | 469 kts | 283° |
| 2026-04-25 15:25 | 2.73878 | 16.02071 | 35839 ft | 469 kts | 283° |
| 2026-04-25 15:25 | 2.75301 | 15.95701 | 35843 ft | 469 kts | 282° |
| 2026-04-25 15:26 | 2.76722 | 15.89333 | 35847 ft | 469 kts | 282° |
| 2026-04-25 15:26 | 2.78143 | 15.82968 | 35847 ft | 469 kts | 282° |
| 2026-04-25 15:27 | 2.79562 | 15.76606 | 35848 ft | 468 kts | 282° |
| 2026-04-25 15:28 | 2.81687 | 15.67079 | 35849 ft | 468 kts | 282° |
| 2026-04-25 15:28 | 2.83102 | 15.60730 | 35855 ft | 467 kts | 282° |
| 2026-04-25 15:29 | 2.84516 | 15.54385 | 35844 ft | 467 kts | 282° |
| 2026-04-25 15:29 | 2.85927 | 15.48051 | 35847 ft | 466 kts | 282° |
| 2026-04-25 15:30 | 2.87336 | 15.41720 | 35848 ft | 466 kts | 282° |
| 2026-04-25 15:30 | 2.88744 | 15.35393 | 35849 ft | 466 kts | 282° |
| 2026-04-25 15:31 | 2.90153 | 15.29064 | 35852 ft | 466 kts | 282° |
| 2026-04-25 15:31 | 2.91559 | 15.22741 | 35847 ft | 466 kts | 282° |
| 2026-04-25 15:32 | 2.92965 | 15.16420 | 35847 ft | 466 kts | 282° |
| 2026-04-25 15:32 | 2.94370 | 15.10100 | 35851 ft | 465 kts | 282° |
| 2026-04-25 15:33 | 2.96477 | 15.00622 | 35855 ft | 465 kts | 282° |
| 2026-04-25 15:33 | 2.97880 | 14.94307 | 35847 ft | 465 kts | 282° |
| 2026-04-25 15:34 | 2.99282 | 14.87995 | 35853 ft | 464 kts | 282° |
| 2026-04-25 15:34 | 3.00446 | 14.82752 | 35845 ft | 464 kts | 282° |
| 2026-04-25 15:35 | 3.02772 | 14.72277 | 35849 ft | 464 kts | 282° |
| 2026-04-25 15:36 | 3.04866 | 14.62839 | 35845 ft | 463 kts | 282° |
| 2026-04-25 15:36 | 3.06260 | 14.56555 | 35847 ft | 463 kts | 282° |
| 2026-04-25 15:37 | 3.07652 | 14.50276 | 35844 ft | 462 kts | 282° |
| 2026-04-25 15:37 | 3.09043 | 14.44001 | 35847 ft | 462 kts | 282° |
| 2026-04-25 15:38 | 3.10433 | 14.37725 | 35839 ft | 462 kts | 282° |
| 2026-04-25 15:38 | 3.11822 | 14.31455 | 35847 ft | 462 kts | 282° |
| 2026-04-25 15:39 | 3.13211 | 14.25186 | 35847 ft | 462 kts | 282° |
| 2026-04-25 15:39 | 3.14600 | 14.18911 | 35842 ft | 462 kts | 281° |
| 2026-04-25 15:40 | 3.15520 | 14.14754 | 35845 ft | 462 kts | 281° |
| 2026-04-25 15:40 | 3.17381 | 14.06353 | 35843 ft | 463 kts | 281° |
| 2026-04-25 15:41 | 3.18764 | 14.00107 | 35848 ft | 463 kts | 281° |
| 2026-04-25 15:41 | 3.20156 | 13.93815 | 35842 ft | 463 kts | 281° |
| 2026-04-25 15:42 | 3.21548 | 13.87520 | 35848 ft | 463 kts | 281° |
| 2026-04-25 15:42 | 3.22940 | 13.81226 | 35850 ft | 463 kts | 281° |
| 2026-04-25 15:43 | 3.24331 | 13.74930 | 35858 ft | 464 kts | 281° |
| 2026-04-25 15:43 | 3.25723 | 13.68629 | 35859 ft | 464 kts | 281° |
| 2026-04-25 15:44 | 3.27115 | 13.62329 | 35864 ft | 464 kts | 281° |
| 2026-04-25 15:44 | 3.28506 | 13.56029 | 35867 ft | 464 kts | 281° |
| 2026-04-25 15:45 | 3.29900 | 13.49727 | 35871 ft | 464 kts | 281° |
| 2026-04-25 15:45 | 3.31062 | 13.44484 | 35866 ft | 464 kts | 281° |
| 2026-04-25 15:46 | 3.32693 | 13.37112 | 35876 ft | 464 kts | 281° |
| 2026-04-25 15:46 | 3.34089 | 13.30802 | 35878 ft | 465 kts | 281° |
| 2026-04-25 15:47 | 3.35485 | 13.24488 | 35880 ft | 465 kts | 281° |
| 2026-04-25 15:47 | 3.36880 | 13.18176 | 35885 ft | 465 kts | 281° |
| 2026-04-25 15:48 | 3.38275 | 13.11862 | 35882 ft | 465 kts | 281° |
| 2026-04-25 15:48 | 3.39671 | 13.05541 | 35901 ft | 465 kts | 281° |
| 2026-04-25 15:49 | 3.41068 | 12.99218 | 35892 ft | 466 kts | 281° |
| 2026-04-25 15:49 | 3.42465 | 12.92885 | 35899 ft | 466 kts | 281° |
| 2026-04-25 15:50 | 3.43864 | 12.86547 | 35900 ft | 467 kts | 281° |
| 2026-04-25 15:50 | 3.45253 | 12.80247 | 35899 ft | 466 kts | 281° |
| 2026-04-25 15:51 | 3.46188 | 12.76007 | 35904 ft | 466 kts | 281° |
| 2026-04-25 15:51 | 3.48045 | 12.67584 | 35905 ft | 465 kts | 281° |
| 2026-04-25 15:52 | 3.49435 | 12.61267 | 35907 ft | 464 kts | 281° |
| 2026-04-25 15:52 | 3.50822 | 12.54960 | 35911 ft | 464 kts | 281° |
| 2026-04-25 15:53 | 3.52206 | 12.48658 | 35905 ft | 463 kts | 281° |
| 2026-04-25 15:53 | 3.53588 | 12.42366 | 35912 ft | 463 kts | 281° |
| 2026-04-25 15:54 | 3.54969 | 12.36080 | 35919 ft | 462 kts | 281° |
| 2026-04-25 15:54 | 3.56346 | 12.29807 | 35915 ft | 459 kts | 281° |
| 2026-04-25 15:55 | 3.57027 | 12.26707 | 35723 ft | 454 kts | 281° |
| 2026-04-25 15:55 | 3.57701 | 12.23638 | 35429 ft | 447 kts | 281° |
| 2026-04-25 15:55 | 3.58365 | 12.20611 | 35041 ft | 444 kts | 281° |
| 2026-04-25 15:55 | 3.59024 | 12.17609 | 34679 ft | 440 kts | 281° |
| 2026-04-25 15:56 | 3.59679 | 12.14621 | 34305 ft | 438 kts | 281° |
| 2026-04-25 15:56 | 3.60331 | 12.11649 | 33895 ft | 436 kts | 281° |
| 2026-04-25 15:56 | 3.60979 | 12.08692 | 33472 ft | 434 kts | 281° |
| 2026-04-25 15:56 | 3.61623 | 12.05753 | 33071 ft | 431 kts | 281° |
| 2026-04-25 15:57 | 3.62262 | 12.02836 | 32682 ft | 428 kts | 282° |
| 2026-04-25 15:57 | 3.62897 | 11.99937 | 32304 ft | 425 kts | 282° |
| 2026-04-25 15:57 | 3.63528 | 11.97059 | 31936 ft | 422 kts | 282° |
| 2026-04-25 15:57 | 3.64146 | 11.94238 | 31572 ft | 419 kts | 282° |
| 2026-04-25 15:58 | 3.64776 | 11.91361 | 31197 ft | 417 kts | 282° |
| 2026-04-25 15:58 | 3.65394 | 11.88538 | 30831 ft | 414 kts | 282° |
| 2026-04-25 15:58 | 3.66009 | 11.85730 | 30468 ft | 412 kts | 282° |
| 2026-04-25 15:58 | 3.66612 | 11.82975 | 30113 ft | 409 kts | 282° |
| 2026-04-25 15:59 | 3.67221 | 11.80195 | 29683 ft | 408 kts | 282° |
| 2026-04-25 15:59 | 3.67825 | 11.77435 | 29284 ft | 404 kts | 282° |
| 2026-04-25 15:59 | 3.68424 | 11.74697 | 28888 ft | 401 kts | 282° |
| 2026-04-25 15:59 | 3.69019 | 11.71979 | 28498 ft | 398 kts | 282° |
| 2026-04-25 16:00 | 3.69609 | 11.69282 | 28121 ft | 395 kts | 282° |
| 2026-04-25 16:00 | 3.69806 | 11.68379 | 27999 ft | 394 kts | 282° |
| 2026-04-25 16:00 | 3.70773 | 11.63956 | 27386 ft | 389 kts | 283° |
| 2026-04-25 16:00 | 3.71350 | 11.61320 | 27022 ft | 386 kts | 283° |
| 2026-04-25 16:01 | 3.71922 | 11.58703 | 26661 ft | 384 kts | 283° |
| 2026-04-25 16:01 | 3.72485 | 11.56098 | 26311 ft | 381 kts | 281° |
| 2026-04-25 16:01 | 3.72799 | 11.53485 | 26115 ft | 374 kts | 274° |
| 2026-04-25 16:01 | 3.72926 | 11.50896 | 25790 ft | 371 kts | 272° |
| 2026-04-25 16:02 | 3.73019 | 11.48325 | 25472 ft | 368 kts | 272° |
| 2026-04-25 16:02 | 3.73109 | 11.45768 | 25146 ft | 366 kts | 272° |
| 2026-04-25 16:02 | 3.73204 | 11.43227 | 24808 ft | 365 kts | 272° |
| 2026-04-25 16:02 | 3.73307 | 11.40689 | 24446 ft | 364 kts | 272° |
| 2026-04-25 16:03 | 3.73415 | 11.38168 | 24103 ft | 363 kts | 272° |
| 2026-04-25 16:03 | 3.73527 | 11.35643 | 23751 ft | 362 kts | 272° |
| 2026-04-25 16:03 | 3.73641 | 11.33127 | 23377 ft | 362 kts | 272° |
| 2026-04-25 16:03 | 3.73756 | 11.30620 | 22999 ft | 360 kts | 272° |
| 2026-04-25 16:04 | 3.73871 | 11.28122 | 22620 ft | 358 kts | 272° |
| 2026-04-25 16:04 | 3.73985 | 11.25638 | 22262 ft | 356 kts | 272° |
| 2026-04-25 16:04 | 3.74099 | 11.23170 | 21917 ft | 354 kts | 272° |
| 2026-04-25 16:04 | 3.74212 | 11.20720 | 21572 ft | 351 kts | 272° |
| 2026-04-25 16:05 | 3.74324 | 11.18282 | 21235 ft | 349 kts | 272° |
| 2026-04-25 16:05 | 3.74435 | 11.15864 | 20898 ft | 347 kts | 272° |
| 2026-04-25 16:05 | 3.74656 | 11.11060 | 20229 ft | 343 kts | 272° |
| 2026-04-25 16:06 | 3.74765 | 11.08678 | 19891 ft | 342 kts | 272° |
| 2026-04-25 16:06 | 3.74874 | 11.06305 | 19561 ft | 340 kts | 272° |
| 2026-04-25 16:06 | 3.74982 | 11.03947 | 19221 ft | 339 kts | 272° |
| 2026-04-25 16:06 | 3.75090 | 11.01590 | 18882 ft | 338 kts | 272° |
| 2026-04-25 16:07 | 3.75197 | 10.99240 | 18535 ft | 338 kts | 272° |
| 2026-04-25 16:07 | 3.75234 | 10.98446 | 18426 ft | 338 kts | 272° |
| 2026-04-25 16:07 | 3.75412 | 10.94546 | 17819 ft | 337 kts | 272° |
| 2026-04-25 16:07 | 3.75519 | 10.92214 | 17546 ft | 333 kts | 272° |
| 2026-04-25 16:08 | 3.75624 | 10.89915 | 17257 ft | 329 kts | 272° |
| 2026-04-25 16:08 | 3.75728 | 10.87632 | 16942 ft | 327 kts | 272° |
| 2026-04-25 16:08 | 3.75832 | 10.85363 | 16612 ft | 325 kts | 272° |
| 2026-04-25 16:08 | 3.75934 | 10.83106 | 16292 ft | 324 kts | 272° |
| 2026-04-25 16:09 | 3.76002 | 10.81615 | 16076 ft | 323 kts | 272° |
| 2026-04-25 16:09 | 3.76104 | 10.79378 | 15768 ft | 321 kts | 272° |
| 2026-04-25 16:09 | 3.76206 | 10.77154 | 15459 ft | 319 kts | 272° |
| 2026-04-25 16:09 | 3.76307 | 10.74938 | 15147 ft | 318 kts | 272° |
| 2026-04-25 16:10 | 3.76408 | 10.72728 | 14829 ft | 317 kts | 272° |
| 2026-04-25 16:10 | 3.76509 | 10.70523 | 14485 ft | 317 kts | 272° |
| 2026-04-25 16:10 | 3.76609 | 10.68323 | 14167 ft | 316 kts | 272° |
| 2026-04-25 16:10 | 3.76710 | 10.66120 | 13844 ft | 316 kts | 272° |
| 2026-04-25 16:11 | 3.76810 | 10.63921 | 13488 ft | 316 kts | 272° |
| 2026-04-25 16:11 | 3.76909 | 10.61728 | 13150 ft | 315 kts | 272° |
| 2026-04-25 16:11 | 3.77009 | 10.59541 | 12832 ft | 314 kts | 272° |
| 2026-04-25 16:11 | 3.77108 | 10.57360 | 12491 ft | 313 kts | 272° |
| 2026-04-25 16:12 | 3.77207 | 10.55185 | 12160 ft | 312 kts | 272° |
| 2026-04-25 16:12 | 3.77305 | 10.53019 | 11859 ft | 311 kts | 272° |
| 2026-04-25 16:12 | 3.77403 | 10.50857 | 11533 ft | 313 kts | 272° |
| 2026-04-25 16:12 | 3.77469 | 10.49411 | 11315 ft | 314 kts | 272° |
| 2026-04-25 16:13 | 3.77601 | 10.46492 | 10874 ft | 313 kts | 272° |
| 2026-04-25 16:13 | 3.77700 | 10.44321 | 10561 ft | 312 kts | 272° |
| 2026-04-25 16:13 | 3.77797 | 10.42184 | 10249 ft | 310 kts | 272° |
| 2026-04-25 16:13 | 3.77894 | 10.40024 | 10092 ft | 303 kts | 272° |
| 2026-04-25 16:14 | 3.77988 | 10.37949 | 9785 ft | 302 kts | 272° |
| 2026-04-25 16:14 | 3.78083 | 10.35851 | 9471 ft | 301 kts | 272° |
| 2026-04-25 16:14 | 3.78178 | 10.33766 | 9152 ft | 299 kts | 272° |
| 2026-04-25 16:14 | 3.78271 | 10.31691 | 8845 ft | 298 kts | 272° |
| 2026-04-25 16:15 | 3.78364 | 10.29628 | 8547 ft | 295 kts | 272° |
| 2026-04-25 16:15 | 3.78457 | 10.27578 | 8235 ft | 294 kts | 272° |
| 2026-04-25 16:15 | 3.78549 | 10.25539 | 7942 ft | 293 kts | 272° |
| 2026-04-25 16:15 | 3.78640 | 10.23508 | 7649 ft | 291 kts | 271° |
| 2026-04-25 16:16 | 3.78732 | 10.21486 | 7347 ft | 290 kts | 271° |
| 2026-04-25 16:16 | 3.78822 | 10.19477 | 7051 ft | 288 kts | 271° |
| 2026-04-25 16:16 | 3.78912 | 10.17478 | 6763 ft | 286 kts | 272° |
| 2026-04-25 16:16 | 3.79001 | 10.15492 | 6475 ft | 285 kts | 271° |
| 2026-04-25 16:17 | 3.79230 | 10.13522 | 6155 ft | 286 kts | 288° |
| 2026-04-25 16:17 | 3.80080 | 10.11729 | 5881 ft | 283 kts | 297° |
| 2026-04-25 16:17 | 3.80996 | 10.10014 | 5575 ft | 276 kts | 297° |
| 2026-04-25 16:17 | 3.81891 | 10.08335 | 5283 ft | 270 kts | 296° |
| 2026-04-25 16:18 | 3.82760 | 10.06693 | 5013 ft | 264 kts | 296° |
| 2026-04-25 16:18 | 3.83048 | 10.06147 | 4917 ft | 262 kts | 296° |
| 2026-04-25 16:18 | 3.84434 | 10.03504 | 4482 ft | 256 kts | 296° |
| 2026-04-25 16:18 | 3.85254 | 10.01933 | 4208 ft | 254 kts | 295° |
| 2026-04-25 16:19 | 3.86067 | 10.00371 | 3949 ft | 252 kts | 296° |
| 2026-04-25 16:19 | 3.86875 | 9.98820 | 3690 ft | 249 kts | 296° |
| 2026-04-25 16:19 | 3.87674 | 9.97289 | 3507 ft | 246 kts | 296° |
| 2026-04-25 16:20 | 3.89210 | 9.94335 | 3272 ft | 230 kts | 296° |
| 2026-04-25 16:20 | 3.89929 | 9.92955 | 3175 ft | 218 kts | 295° |
| 2026-04-25 16:20 | 3.91342 | 9.90297 | 3036 ft | 213 kts | 296° |
| 2026-04-25 16:21 | 3.92006 | 9.89021 | 3005 ft | 199 kts | 295° |
| 2026-04-25 16:21 | 3.92616 | 9.87815 | 3004 ft | 193 kts | 294° |
| 2026-04-25 16:21 | 3.93222 | 9.86611 | 2856 ft | 195 kts | 294° |
| 2026-04-25 16:21 | 3.93835 | 9.85394 | 2626 ft | 195 kts | 295° |
| 2026-04-25 16:22 | 3.94444 | 9.84183 | 2379 ft | 192 kts | 295° |
| 2026-04-25 16:22 | 3.95033 | 9.83015 | 2126 ft | 189 kts | 295° |
| 2026-04-25 16:22 | 3.95629 | 9.81829 | 1883 ft | 189 kts | 294° |
| 2026-04-25 16:22 | 3.96217 | 9.80660 | 1641 ft | 184 kts | 293° |
| 2026-04-25 16:23 | 3.96775 | 9.79555 | 1432 ft | 169 kts | 294° |
| 2026-04-25 16:23 | 3.97284 | 9.78545 | 1191 ft | 156 kts | 293° |
| 2026-04-25 16:23 | 3.97766 | 9.77584 | 996 ft | 154 kts | 294° |
| 2026-04-25 16:23 | 3.98245 | 9.76632 | 810 ft | 151 kts | 292° |
| 2026-04-25 16:24 | 3.98711 | 9.75709 | 618 ft | 147 kts | 293° |
| 2026-04-25 16:24 | 3.99169 | 9.74795 | 383 ft | 150 kts | 297° |
| 2026-04-25 16:24 | 3.99645 | 9.73855 | 208 ft | 152 kts | 298° |
| 2026-04-25 16:24 | 4.00128 | 9.72910 | 46 ft | 152 kts | 296° |
| 2026-04-25 16:25 | 4.00563 | 9.72049 | 36 ft | 117 kts | 297° |
| 2026-04-25 16:25 | 4.00768 | 9.71645 | 38 ft | 75 kts | 296° |
| 2026-04-25 16:25 | 4.00911 | 9.71359 | 36 ft | 0 kts | 297° |
| 2026-04-25 16:25 | 4.00934 | 9.71335 | 37 ft | 12 kts | 332° |
| 2026-04-25 16:26 | 4.01032 | 9.71364 | 34 ft | 17 kts | 37° |
| 2026-04-25 16:26 | 4.01039 | 9.71464 | 32 ft | 16 kts | 119° |
| 2026-04-25 16:26 | 4.00984 | 9.71561 | 32 ft | 16 kts | 120° |
| 2026-04-25 16:26 | 4.00932 | 9.71655 | 34 ft | 15 kts | 112° |
| 2026-04-25 16:27 | 4.00966 | 9.71739 | 33 ft | 15 kts | 17° |
| 2026-04-25 16:27 | 4.01052 | 9.71785 | 33 ft | 14 kts | 47° |
| 2026-04-25 16:27 | 4.01050 | 9.71873 | 33 ft | 13 kts | 116° |
| 2026-04-25 16:27 | 4.01032 | 9.71942 | 33 ft | 2 kts | 61° |
| 2026-04-25 16:28 | 4.01041 | 9.71952 | 31 ft | 3 kts | 42° |
| 2026-04-25 16:28 | 4.01062 | 9.71964 | 33 ft | 3 kts | 26° |
| 2026-04-25 16:28 | 4.01075 | 9.71971 | 33 ft | 0 kts | 27° |